Time;durP1;ratioP1;P1;durP2;ratioP2;P2;SDS_P1;SDS_P2;PMS_P1;PMS_P2;Temp;Humidity;BMP_temperature;BMP_pressure;BME280_temperature;BME280_humidity;BME280_pressure;Samples;Min_cycle;Max_cycle;Signal;HPM_P1;HPM_P2
2022/08/31 00:04:50;;;;;;;;;7.20;6.40;;;;;24.98;41.06;101257.91;2100621;27;48175;-62
2022/08/31 00:06:02;;;;;;;;;7.25;7.25;;;;;24.96;41.30;101249.00;2098171;28;47257;-63
2022/08/31 00:07:03;;;;;;;;;4.80;4.80;;;;;24.95;41.66;101250.88;2096891;28;47677;-63
2022/08/31 00:08:04;;;;;;;;;6.40;6.40;;;;;24.94;41.45;101250.97;2100344;27;47603;-63
2022/08/31 00:09:05;;;;;;;;;5.60;5.60;;;;;24.94;41.33;101253.69;2100702;28;47668;-63
2022/08/31 00:10:17;;;;;;;;;7.20;5.20;;;;;24.92;41.24;101251.09;2101505;28;47663;-63
2022/08/31 00:11:26;;;;;;;;;6.80;6.00;;;;;24.92;41.65;101244.81;2102370;28;45638;-63
2022/08/31 00:12:27;;;;;;;;;6.60;5.80;;;;;24.91;41.45;101246.66;2098007;27;46121;-62
2022/08/31 00:13:28;;;;;;;;;7.50;7.50;;;;;24.91;41.81;101251.22;2102210;28;47606;-63
2022/08/31 00:14:28;;;;;;;;;7.00;7.00;;;;;24.91;41.69;101246.66;2098295;28;47525;-63
2022/08/31 00:15:29;;;;;;;;;7.00;5.00;;;;;24.91;41.67;101248.50;2101400;28;47488;-62
2022/08/31 00:16:31;;;;;;;;;5.00;5.00;;;;;24.89;41.47;101251.28;2100291;27;48142;-63
2022/08/31 00:17:31;;;;;;;;;7.60;7.60;;;;;24.88;41.51;101252.28;2100972;28;47665;-63
2022/08/31 00:18:32;;;;;;;;;8.25;7.00;;;;;24.87;41.75;101250.53;2098356;28;47526;-63
2022/08/31 00:19:32;;;;;;;;;7.00;6.50;;;;;24.87;41.55;101247.84;2098023;28;47922;-63
2022/08/31 00:20:34;;;;;;;;;5.50;5.50;;;;;24.88;41.14;101243.28;2097619;27;47470;-62
2022/08/31 00:21:34;;;;;;;;;6.60;6.60;;;;;24.88;41.50;101244.13;2104254;28;47800;-63
2022/08/31 00:22:35;;;;;;;;;6.25;6.25;;;;;24.86;41.61;101248.81;2097131;27;47641;-63
2022/08/31 00:23:35;;;;;;;;;5.75;5.75;;;;;24.85;41.41;101240.78;2096154;28;47943;-64
2022/08/31 00:24:35;;;;;;;;;8.00;6.00;;;;;24.84;41.49;101245.34;2088064;28;47578;-64
2022/08/31 00:25:39;;;;;;;;;5.75;5.75;;;;;24.84;41.60;101247.19;2081747;28;46394;-63
2022/08/31 00:26:40;;;;;;;;;6.20;6.20;;;;;24.84;41.40;101241.78;2079226;28;47790;-64
2022/08/31 00:27:41;;;;;;;;;4.40;4.40;;;;;24.83;41.47;101243.63;2089854;28;47767;-63
2022/08/31 00:28:42;;;;;;;;;5.75;5.75;;;;;24.83;41.96;101243.63;2097657;27;46614;-62
2022/08/31 00:29:43;;;;;;;;;7.00;6.00;;;;;24.83;41.23;101245.47;2102762;28;47695;-62
2022/08/31 00:30:43;;;;;;;;;6.00;5.00;;;;;24.81;41.57;101234.72;2102635;27;47945;-63
2022/08/31 00:31:44;;;;;;;;;6.75;6.75;;;;;24.81;41.21;101239.28;2111162;27;47146;-63
2022/08/31 00:32:44;;;;;;;;;8.00;6.00;;;;;24.79;41.69;101233.97;2099708;27;47491;-63
2022/08/31 00:33:50;;;;;;;;;5.75;5.75;;;;;24.77;41.63;101233.19;2104825;28;47601;-63
2022/08/31 00:34:51;;;;;;;;;5.60;5.20;;;;;24.77;41.67;101232.31;2099234;28;47827;-63
2022/08/31 00:35:52;;;;;;;;;7.25;6.25;;;;;24.75;41.22;101240.59;2104577;28;47415;-64
2022/08/31 00:36:52;;;;;;;;;6.00;6.00;;;;;24.74;41.71;101235.28;2099417;28;47430;-63
2022/08/31 00:37:53;;;;;;;;;8.00;7.50;;;;;24.74;42.06;101243.41;2107320;27;47898;-63
2022/08/31 00:38:55;;;;;;;;;8.25;6.50;;;;;24.73;41.38;101233.53;2099643;27;47460;-63
2022/08/31 00:39:56;;;;;;;;;6.00;6.00;;;;;24.73;41.70;101238.97;2104609;28;47248;-63
2022/08/31 00:40:57;;;;;;;;;6.00;5.75;;;;;24.73;41.66;101233.53;2101774;27;47441;-63
2022/08/31 00:41:58;;;;;;;;;6.40;5.00;;;;;24.72;41.78;101240.81;2095708;28;47606;-63
2022/08/31 00:43:00;;;;;;;;;7.00;6.00;;;;;24.72;42.06;101239.94;2087903;28;47349;-63
2022/08/31 00:44:04;;;;;;;;;5.40;5.00;;;;;24.71;41.73;101243.66;2102851;28;47698;-63
2022/08/31 00:45:05;;;;;;;;;9.00;7.80;;;;;24.70;41.64;101242.78;2097379;28;48101;-64
2022/08/31 00:46:08;;;;;;;;;6.40;6.40;;;;;24.70;41.45;101240.06;2101696;28;47617;-63
2022/08/31 00:47:09;;;;;;;;;6.20;6.20;;;;;24.69;41.68;101243.75;2102496;28;46242;-63
2022/08/31 00:48:09;;;;;;;;;7.00;7.00;;;;;24.69;41.73;101249.19;2102203;27;47752;-63
2022/08/31 00:49:20;;;;;;;;;6.00;6.00;;;;;24.69;41.66;101238.31;2102985;27;47895;-63
2022/08/31 00:50:23;;;;;;;;;5.80;5.80;;;;;24.66;41.66;101238.56;2096591;27;47495;-64
2022/08/31 00:51:26;;;;;;;;;6.00;6.00;;;;;24.66;41.82;101238.56;2103061;28;47563;-63
2022/08/31 00:52:32;;;;;;;;;5.40;5.40;;;;;24.64;41.62;101235.94;2102541;27;47871;-63
2022/08/31 00:53:33;;;;;;;;;5.20;5.20;;;;;24.63;41.99;101242.34;2102139;27;47667;-63
2022/08/31 00:54:51;;;;;;;;;5.25;5.25;;;;;24.62;41.61;101240.59;2082749;28;47536;-62
2022/08/31 00:55:52;;;;;;;;;4.60;4.60;;;;;24.62;41.48;101237.03;2088208;28;47430;-63
2022/08/31 00:56:53;;;;;;;;;4.00;4.00;;;;;24.59;41.70;101235.41;2093057;28;47386;-63
2022/08/31 00:57:56;;;;;;;;;5.20;4.00;;;;;24.58;41.70;101236.38;2095237;28;47896;-63
2022/08/31 00:58:58;;;;;;;;;3.60;3.60;;;;;24.56;41.81;101232.91;2101287;27;47309;-63
2022/08/31 01:00:01;;;;;;;;;6.80;5.40;;;;;24.55;41.74;101244.75;2102476;27;47884;-62
2022/08/31 01:01:06;;;;;;;;;6.00;6.00;;;;;24.54;41.95;101244.88;2109675;27;47213;-62
2022/08/31 01:02:07;;;;;;;;;4.40;4.40;;;;;24.52;41.50;101244.09;2110452;27;47717;-63
2022/08/31 01:03:08;;;;;;;;;4.80;4.80;;;;;24.51;42.09;101247.78;2102746;28;47657;-63
2022/08/31 01:04:09;;;;;;;;;5.80;5.80;;;;;24.48;42.32;101243.44;2101211;27;47828;-62
2022/08/31 01:05:09;;;;;;;;;4.25;4.25;;;;;24.48;41.92;101242.56;2101557;27;47564;-63
2022/08/31 01:06:10;;;;;;;;;5.50;5.00;;;;;24.49;41.50;101238.88;2101866;27;47559;-62
2022/08/31 01:07:10;;;;;;;;;4.00;4.00;;;;;24.48;41.96;101248.00;2102341;27;47956;-63
2022/08/31 01:08:12;;;;;;;;;3.75;3.75;;;;;24.48;41.88;101248.00;2101847;27;47414;-62
2022/08/31 01:09:13;;;;;;;;;6.40;5.80;;;;;24.45;41.88;101246.38;2103004;27;48041;-64
2022/08/31 01:10:15;;;;;;;;;7.00;5.50;;;;;24.44;42.08;101249.22;2101493;27;47317;-66
2022/08/31 01:11:17;;;;;;;;;4.20;4.20;;;;;24.43;41.97;101253.78;2103124;27;47173;-63
2022/08/31 01:12:18;;;;;;;;;4.80;4.80;;;;;24.43;42.10;101248.34;2101278;27;47188;-63
2022/08/31 01:13:18;;;;;;;;;4.00;4.00;;;;;24.43;42.10;101247.47;2098196;27;47458;-63
2022/08/31 01:14:19;;;;;;;;;5.00;5.00;;;;;24.42;42.05;101249.31;2096837;27;47260;-64
2022/08/31 01:15:21;;;;;;;;;5.60;5.60;;;;;24.42;42.20;101249.31;2102766;28;47463;-64
2022/08/31 01:16:27;;;;;;;;;5.00;5.00;;;;;24.41;42.42;101250.31;2100845;27;47587;-64
2022/08/31 01:17:30;;;;;;;;;6.80;5.20;;;;;24.40;41.77;101253.13;2102371;28;47738;-63
2022/08/31 01:18:32;;;;;;;;;4.40;4.40;;;;;24.40;42.06;101242.28;2101840;27;47276;-63
2022/08/31 01:19:40;;;;;;;;;5.40;4.20;;;;;24.40;42.03;101250.41;2099459;28;47848;-63
2022/08/31 01:21:18;;;;;;;;;4.00;4.00;;;;;24.38;42.05;101247.78;2102570;28;46561;-63
2022/08/31 01:22:36;;;;;;;;;5.20;5.20;;;;;24.36;42.14;101247.03;2074934;28;48232;-63
2022/08/31 01:23:42;;;;;;;;;5.00;4.40;;;;;24.36;42.03;101242.47;2088329;28;47933;-61
2022/08/31 01:24:45;;;;;;;;;5.60;5.40;;;;;24.35;42.07;101246.16;2092000;28;47249;-62
2022/08/31 01:25:48;;;;;;;;;4.40;4.40;;;;;24.35;42.34;101246.16;2095807;28;47634;-63
2022/08/31 01:26:51;;;;;;;;;5.00;5.00;;;;;24.35;42.09;101245.28;2102013;28;47509;-64
2022/08/31 01:27:53;;;;;;;;;4.00;4.00;;;;;24.33;42.17;101255.41;2104053;28;47776;-63
2022/08/31 01:28:59;;;;;;;;;5.00;4.00;;;;;24.31;42.04;101247.38;2098659;28;47458;-62
2022/08/31 01:30:09;;;;;;;;;5.20;5.00;;;;;24.32;41.81;101250.94;2095982;28;47677;-62
2022/08/31 01:31:22;;;;;;;;;5.20;5.20;;;;;24.32;42.35;101250.94;2102825;28;47458;-62
2022/08/31 01:32:23;;;;;;;;;4.60;4.60;;;;;24.32;42.21;101245.53;2101194;27;47847;-63
2022/08/31 01:33:23;;;;;;;;;5.50;5.25;;;;;24.34;42.10;101254.41;2102282;28;47205;-63
2022/08/31 01:34:24;;;;;;;;;4.00;4.00;;;;;24.32;42.43;101254.53;2100962;28;47605;-62
2022/08/31 01:35:24;;;;;;;;;5.25;5.25;;;;;24.33;42.29;101250.84;2102402;28;47518;-63
2022/08/31 01:36:27;;;;;;;;;7.00;7.00;;;;;24.33;42.29;101247.25;2101857;28;47211;-63
2022/08/31 01:37:28;;;;;;;;;4.00;4.00;;;;;24.33;42.29;101253.53;2103366;28;47268;-63
2022/08/31 01:38:30;;;;;;;;;6.40;6.00;;;;;24.32;42.34;101253.66;2102925;28;47502;-63
2022/08/31 01:39:30;;;;;;;;;5.00;4.60;;;;;24.31;42.37;101255.50;2103525;28;47191;-63
2022/08/31 01:40:43;;;;;;;;;4.00;4.00;;;;;24.29;42.25;101252.00;2102230;27;47571;-64
2022/08/31 01:41:44;;;;;;;;;4.40;4.40;;;;;24.28;42.47;101252.97;2103699;28;48005;-62
2022/08/31 01:42:44;;;;;;;;;6.60;4.80;;;;;24.27;42.53;101253.97;2096738;28;47317;-62
2022/08/31 01:43:44;;;;;;;;;3.00;3.00;;;;;24.26;42.34;101252.19;2104591;28;47884;-63
2022/08/31 01:44:45;;;;;;;;;3.00;3.00;;;;;24.25;42.40;101250.47;2104221;28;47492;-63
2022/08/31 01:45:45;;;;;;;;;5.00;4.75;;;;;24.26;42.14;101256.75;2093647;28;47015;-63
2022/08/31 01:46:47;;;;;;;;;7.00;5.75;;;;;24.25;42.11;101255.03;2093002;28;48052;-63
2022/08/31 01:47:47;;;;;;;;;5.20;4.20;;;;;24.24;42.59;101256.00;2101328;28;47595;-63
2022/08/31 01:48:48;;;;;;;;;4.00;4.00;;;;;24.22;42.40;101255.25;2100201;28;47320;-63
2022/08/31 01:49:48;;;;;;;;;6.00;5.50;;;;;24.23;42.30;101254.25;2099805;28;47328;-64
2022/08/31 01:50:48;;;;;;;;;3.00;3.00;;;;;24.21;42.62;101257.09;2103299;28;47248;-63
2022/08/31 01:51:50;;;;;;;;;8.00;6.00;;;;;24.19;42.60;101256.34;2105692;27;47499;-62
2022/08/31 01:52:50;;;;;;;;;7.00;5.60;;;;;24.18;42.55;101253.72;2099835;28;47943;-63
2022/08/31 01:53:52;;;;;;;;;5.50;5.50;;;;;24.17;42.54;101252.00;2104143;28;47321;-63
2022/08/31 01:54:54;;;;;;;;;5.80;5.80;;;;;24.16;42.58;101256.56;2094460;28;47530;-64
2022/08/31 01:55:55;;;;;;;;;4.60;4.60;;;;;24.17;42.75;101257.41;2092271;28;46835;-62
2022/08/31 01:56:55;;;;;;;;;5.00;5.00;;;;;24.15;42.89;101254.81;2103184;28;47531;-63
2022/08/31 01:57:58;;;;;;;;;4.25;4.25;;;;;24.13;42.75;101256.75;2105393;28;47871;-63
2022/08/31 01:58:58;;;;;;;;;5.40;4.40;;;;;24.14;42.62;101252.19;2100476;28;47743;-63
2022/08/31 02:00:00;;;;;;;;;6.50;5.25;;;;;24.13;42.65;101256.75;2101716;28;47495;-61
2022/08/31 02:01:01;;;;;;;;;5.40;5.40;;;;;24.13;42.95;101259.47;2104835;28;47402;-64
2022/08/31 02:02:02;;;;;;;;;5.20;4.80;;;;;24.13;42.54;101253.16;2095831;28;47393;-64
2022/08/31 02:03:04;;;;;;;;;4.25;3.75;;;;;24.12;42.50;101260.44;2095540;28;47490;-63
2022/08/31 02:04:07;;;;;;;;;5.00;4.40;;;;;24.11;42.70;101258.69;2104070;27;47569;-61
2022/08/31 02:05:08;;;;;;;;;5.00;5.00;;;;;24.12;42.85;101259.56;2104277;28;47874;-63
2022/08/31 02:06:11;;;;;;;;;6.00;6.00;;;;;24.10;42.77;101259.69;2104081;28;47890;-63
2022/08/31 02:07:11;;;;;;;;;6.40;6.40;;;;;24.10;42.30;101266.94;2097460;28;47594;-62
2022/08/31 02:08:11;;;;;;;;;6.00;4.25;;;;;24.06;42.76;101267.16;2098307;28;47548;-63
2022/08/31 02:09:13;;;;;;;;;4.25;4.25;;;;;24.04;42.95;101263.69;2100241;28;47394;-63
2022/08/31 02:10:14;;;;;;;;;4.20;4.20;;;;;24.03;42.67;101272.81;2098408;28;47919;-63
2022/08/31 02:11:14;;;;;;;;;4.80;4.80;;;;;24.01;42.92;101266.63;2101365;28;47351;-62
2022/08/31 02:12:15;;;;;;;;;6.00;4.25;;;;;24.01;42.58;101263.91;2100617;28;48147;-63
2022/08/31 02:13:15;;;;;;;;;5.00;5.00;;;;;24.01;42.87;101265.72;2100067;28;47493;-63
2022/08/31 02:14:17;;;;;;;;;6.00;5.00;;;;;24.00;42.68;101267.56;2098581;28;47985;-63
2022/08/31 02:15:18;;;;;;;;;4.60;4.60;;;;;24.00;43.00;101269.41;2099412;28;47395;-61
2022/08/31 02:16:18;;;;;;;;;4.25;4.25;;;;;23.98;42.88;101266.81;2097519;28;47367;-63
2022/08/31 02:17:18;;;;;;;;;5.00;4.25;;;;;23.98;42.82;101257.81;2100722;28;47884;-63
2022/08/31 02:18:19;;;;;;;;;6.25;4.50;;;;;23.98;42.84;101255.97;2099057;28;47344;-63
2022/08/31 02:19:19;;;;;;;;;5.00;5.00;;;;;24.00;42.89;101259.44;2097231;28;47896;-61
2022/08/31 02:20:20;;;;;;;;;6.00;5.25;;;;;23.99;43.19;101263.13;2099217;28;47656;-63
2022/08/31 02:21:21;;;;;;;;;6.00;6.00;;;;;23.99;42.79;101265.84;2101511;28;47739;-62
2022/08/31 02:22:21;;;;;;;;;6.75;5.00;;;;;23.97;42.81;101261.50;2097819;27;47522;-62
2022/08/31 02:23:21;;;;;;;;;5.50;5.50;;;;;23.96;42.70;101263.34;2104447;28;46972;-63
2022/08/31 02:24:22;;;;;;;;;4.00;4.00;;;;;23.94;42.87;101262.59;2097167;27;47947;-63
2022/08/31 02:25:23;;;;;;;;;4.75;4.75;;;;;23.94;42.67;101262.59;2098970;28;47789;-64
2022/08/31 02:26:23;;;;;;;;;5.00;5.00;;;;;23.94;43.06;101261.72;2099534;28;47666;-63
2022/08/31 02:27:24;;;;;;;;;6.00;5.00;;;;;23.93;42.56;101262.69;2097381;28;47616;-62
2022/08/31 02:28:24;;;;;;;;;4.25;4.25;;;;;23.92;42.93;101261.84;2103596;28;47328;-62
2022/08/31 02:29:25;;;;;;;;;4.75;4.75;;;;;23.91;42.90;101267.38;2095535;28;47662;-62
2022/08/31 02:30:25;;;;;;;;;4.75;4.25;;;;;23.90;42.68;101266.50;2098336;27;47547;-63
2022/08/31 02:31:26;;;;;;;;;6.50;5.75;;;;;23.89;42.81;101269.31;2071213;28;47957;-62
2022/08/31 02:32:26;;;;;;;;;5.75;5.25;;;;;23.90;42.77;101271.06;2070275;28;47837;-63
2022/08/31 02:33:27;;;;;;;;;4.00;4.00;;;;;23.89;42.66;101277.44;2094907;28;47111;-63
2022/08/31 02:34:28;;;;;;;;;4.75;4.75;;;;;23.88;43.04;101267.56;2093056;28;47649;-64
2022/08/31 02:35:28;;;;;;;;;4.50;4.00;;;;;23.87;42.91;101273.94;2097466;28;47079;-63
2022/08/31 02:36:31;;;;;;;;;5.75;5.75;;;;;23.87;42.97;101269.41;2103274;28;47637;-63
2022/08/31 02:37:31;;;;;;;;;5.00;5.00;;;;;23.85;43.00;101268.63;2101704;28;47722;-63
2022/08/31 02:38:36;;;;;;;;;5.25;4.00;;;;;23.84;43.24;101272.31;2105405;28;47488;-62
2022/08/31 02:39:36;;;;;;;;;5.20;5.20;;;;;23.82;43.15;101268.84;2104487;28;47858;-63
2022/08/31 02:40:37;;;;;;;;;5.50;5.25;;;;;23.80;43.03;101267.22;2100633;27;47973;-64
2022/08/31 02:41:38;;;;;;;;;5.00;4.40;;;;;23.81;43.09;101267.13;2097287;28;48041;-63
2022/08/31 02:42:39;;;;;;;;;4.25;4.25;;;;;23.80;43.06;101267.22;2104642;28;47893;-63
2022/08/31 02:43:39;;;;;;;;;6.50;6.50;;;;;23.79;43.24;101266.38;2101001;28;47837;-63
2022/08/31 02:44:39;;;;;;;;;5.25;5.25;;;;;23.80;43.03;101269.94;2100235;27;47412;-63
2022/08/31 02:45:40;;;;;;;;;6.00;6.00;;;;;23.80;43.09;101267.22;2104172;28;47400;-63
2022/08/31 02:46:40;;;;;;;;;4.00;4.00;;;;;23.80;43.15;101270.81;2100938;28;47753;-63
2022/08/31 02:47:41;;;;;;;;;5.00;5.00;;;;;23.80;43.29;101272.66;2104071;28;47359;-64
2022/08/31 02:48:41;;;;;;;;;6.00;6.00;;;;;23.78;43.24;101270.91;2103573;28;47675;-63
2022/08/31 02:49:41;;;;;;;;;4.25;4.25;;;;;23.78;43.14;101272.75;2103145;28;47524;-62
2022/08/31 02:50:45;;;;;;;;;4.25;4.25;;;;;23.77;43.30;101265.59;2078695;28;47003;-63
2022/08/31 02:51:46;;;;;;;;;5.00;5.00;;;;;23.76;43.14;101264.72;2078852;28;47858;-63
2022/08/31 02:52:46;;;;;;;;;5.50;4.50;;;;;23.76;43.17;101272.00;2105284;28;47768;-64
2022/08/31 02:53:47;;;;;;;;;4.75;4.75;;;;;23.75;43.01;101270.22;2103896;27;47434;-62
2022/08/31 02:54:47;;;;;;;;;6.50;5.50;;;;;23.72;43.11;101262.31;2104667;27;47683;-63
2022/08/31 02:55:48;;;;;;;;;3.00;3.00;;;;;23.71;43.33;101268.72;2103344;28;47769;-62
2022/08/31 02:56:48;;;;;;;;;6.25;5.50;;;;;23.70;43.17;101266.97;2105047;28;47344;-63
2022/08/31 02:57:50;;;;;;;;;6.00;6.00;;;;;23.69;43.25;101273.38;2101992;28;47957;-64
2022/08/31 02:58:53;;;;;;;;;7.00;6.00;;;;;23.67;43.16;101273.47;2103127;28;48039;-63
2022/08/31 02:59:53;;;;;;;;;5.40;5.40;;;;;23.66;43.77;101274.47;2101895;28;47212;-61
2022/08/31 03:00:54;;;;;;;;;6.50;6.50;;;;;23.66;43.21;101268.16;2103131;28;47914;-63
2022/08/31 03:01:54;;;;;;;;;5.00;5.00;;;;;23.66;43.50;101274.47;2102981;28;47334;-63
2022/08/31 03:02:55;;;;;;;;;7.75;6.25;;;;;23.66;43.31;101276.28;2104902;27;47913;-63
2022/08/31 03:03:56;;;;;;;;;7.00;5.00;;;;;23.67;43.37;101278.03;2092754;28;46803;-63
2022/08/31 03:04:56;;;;;;;;;3.60;3.40;;;;;23.66;43.50;101282.59;2094746;28;47234;-63
2022/08/31 03:05:57;;;;;;;;;4.00;4.00;;;;;23.67;43.42;101280.75;2104025;28;46924;-63
2022/08/31 03:06:57;;;;;;;;;4.00;4.00;;;;;23.66;43.42;101282.59;2095059;28;47591;-63
2022/08/31 03:07:57;;;;;;;;;5.00;5.00;;;;;23.66;43.43;101276.28;2094895;28;45660;-63
2022/08/31 03:09:01;;;;;;;;;7.00;7.00;;;;;23.65;43.38;101271.84;2103660;28;47572;-63
2022/08/31 03:10:08;;;;;;;;;6.60;6.00;;;;;23.65;43.28;101279.97;2100880;27;47260;-62
2022/08/31 03:11:09;;;;;;;;;6.00;6.00;;;;;23.65;43.67;101280.84;2104915;28;47680;-64
2022/08/31 03:12:09;;;;;;;;;5.25;5.00;;;;;23.65;43.31;101277.28;2099656;28;47561;-63
2022/08/31 03:13:10;;;;;;;;;6.25;6.25;;;;;23.64;43.09;101281.81;2070488;28;47638;-63
2022/08/31 03:14:10;;;;;;;;;7.00;6.50;;;;;23.64;43.48;101279.13;2077776;28;47807;-63
2022/08/31 03:15:11;;;;;;;;;6.00;6.00;;;;;23.63;43.22;101281.91;2100100;28;46445;-63
2022/08/31 03:16:14;;;;;;;;;6.50;6.50;;;;;23.62;43.54;101278.31;2103397;28;46916;-63
2022/08/31 03:17:14;;;;;;;;;3.20;3.20;;;;;23.62;43.41;101283.75;2097229;28;47132;-61
2022/08/31 03:18:15;;;;;;;;;7.25;5.00;;;;;23.61;43.49;101276.59;2100852;27;46846;-64
2022/08/31 03:19:15;;;;;;;;;5.00;4.50;;;;;23.61;43.55;101281.13;2094309;28;45621;-61
2022/08/31 03:20:17;;;;;;;;;4.25;4.25;;;;;23.61;43.33;101275.72;2094350;28;47314;-61
2022/08/31 03:21:18;;;;;;;;;4.60;4.60;;;;;23.60;43.49;101282.97;2096635;28;47515;-62
2022/08/31 03:22:18;;;;;;;;;3.50;3.50;;;;;23.61;43.64;101282.00;2098364;27;47057;-62
2022/08/31 03:23:19;;;;;;;;;6.75;4.75;;;;;23.61;43.53;101281.13;2104732;28;47362;-64
2022/08/31 03:24:20;;;;;;;;;4.25;4.25;;;;;23.61;43.37;101273.88;2103459;28;47296;-63
2022/08/31 03:25:21;;;;;;;;;5.80;5.80;;;;;23.60;43.42;101277.56;2104900;28;47975;-64
2022/08/31 03:26:22;;;;;;;;;5.60;4.60;;;;;23.59;43.21;101280.38;2102069;27;47312;-64
2022/08/31 03:27:23;;;;;;;;;4.75;4.75;;;;;23.59;43.43;101283.09;2096813;28;47814;-64
2022/08/31 03:28:23;;;;;;;;;5.60;5.60;;;;;23.59;43.39;101283.94;2101470;28;48152;-63
2022/08/31 03:29:24;;;;;;;;;7.25;7.25;;;;;23.58;43.44;101286.78;2104777;28;47502;-62
2022/08/31 03:30:24;;;;;;;;;6.00;4.75;;;;;23.59;43.36;101285.78;2097883;28;48091;-64
2022/08/31 03:31:25;;;;;;;;;7.00;6.00;;;;;23.58;43.35;101284.06;2088952;28;47931;-63
2022/08/31 03:32:29;;;;;;;;;5.00;5.00;;;;;23.57;43.51;101285.00;2092160;28;47343;-62
2022/08/31 03:33:30;;;;;;;;;5.00;5.00;;;;;23.56;43.34;101281.44;2097389;27;47256;-63
2022/08/31 03:34:30;;;;;;;;;4.00;4.00;;;;;23.54;43.57;101288.78;2104530;28;47119;-63
2022/08/31 03:35:30;;;;;;;;;5.00;4.50;;;;;23.53;43.42;101283.47;2103695;28;47344;-63
2022/08/31 03:36:31;;;;;;;;;5.25;4.25;;;;;23.52;43.46;101296.16;2083511;28;47391;-63
2022/08/31 03:37:31;;;;;;;;;4.50;4.00;;;;;23.51;43.60;101289.00;2081875;28;47752;-63
2022/08/31 03:38:32;;;;;;;;;6.00;6.00;;;;;23.52;43.67;101290.75;2100597;28;47427;-63
2022/08/31 03:39:33;;;;;;;;;5.75;5.75;;;;;23.50;43.28;101292.66;2103495;28;47414;-61
2022/08/31 03:40:33;;;;;;;;;7.00;7.00;;;;;23.49;43.45;101288.22;2100676;28;47569;-64
2022/08/31 03:41:33;;;;;;;;;4.75;4.75;;;;;23.48;43.52;101289.19;2101080;28;47366;-62
2022/08/31 03:42:34;;;;;;;;;6.00;6.00;;;;;23.48;43.42;101292.75;2102380;28;47087;-62
2022/08/31 03:43:35;;;;;;;;;3.75;3.75;;;;;23.47;43.72;101288.31;2103654;28;47694;-63
2022/08/31 03:44:35;;;;;;;;;4.40;3.80;;;;;23.46;43.90;101300.13;2100609;28;47458;-63
2022/08/31 03:45:38;;;;;;;;;5.50;4.00;;;;;23.46;43.61;101289.28;2104683;27;47459;-63
2022/08/31 03:46:38;;;;;;;;;6.20;5.00;;;;;23.45;43.62;101295.69;2101022;28;47140;-62
2022/08/31 03:47:40;;;;;;;;;7.00;7.00;;;;;23.45;43.56;101290.25;2102579;28;47701;-64
2022/08/31 03:48:41;;;;;;;;;4.40;4.20;;;;;23.44;43.35;101291.25;2100599;28;47865;-63
2022/08/31 03:49:42;;;;;;;;;4.75;4.75;;;;;23.44;43.49;101291.25;2103935;28;45275;-63
2022/08/31 03:50:42;;;;;;;;;7.60;7.60;;;;;23.43;43.74;101289.50;2102917;28;47571;-63
2022/08/31 03:51:44;;;;;;;;;5.00;5.00;;;;;23.42;43.43;101292.31;2103006;27;47979;-63
2022/08/31 03:52:44;;;;;;;;;5.80;5.00;;;;;23.41;43.64;101294.16;2101127;28;48025;-63
2022/08/31 03:53:45;;;;;;;;;5.00;5.00;;;;;23.38;43.37;101288.94;2097620;27;47430;-63
2022/08/31 03:54:45;;;;;;;;;5.75;4.75;;;;;23.38;43.69;101297.06;2104395;28;47315;-63
2022/08/31 03:55:45;;;;;;;;;7.25;6.00;;;;;23.36;43.38;101296.28;2103974;28;47545;-63
2022/08/31 03:56:46;;;;;;;;;6.00;6.00;;;;;23.37;43.63;101292.59;2103650;28;46724;-63
2022/08/31 03:57:46;;;;;;;;;6.50;6.25;;;;;23.36;43.40;101293.56;2102881;28;46852;-63
2022/08/31 03:58:46;;;;;;;;;6.75;6.75;;;;;23.36;43.71;101298.13;2103248;28;47349;-63
2022/08/31 03:59:47;;;;;;;;;6.00;6.00;;;;;23.35;43.62;101293.69;2099374;28;47659;-62
2022/08/31 04:00:47;;;;;;;;;6.25;6.25;;;;;23.33;43.86;101290.22;2095147;28;47276;-62
2022/08/31 04:01:48;;;;;;;;;3.00;3.00;;;;;23.33;43.77;101298.34;2103503;27;46556;-63
2022/08/31 04:02:48;;;;;;;;;7.25;7.25;;;;;23.33;43.61;101295.63;2104407;28;47589;-62
2022/08/31 04:03:49;;;;;;;;;6.00;6.00;;;;;23.32;43.79;101294.75;2102845;27;47697;-62
2022/08/31 04:04:51;;;;;;;;;5.50;5.25;;;;;23.32;43.81;101299.31;2095589;28;47928;-62
2022/08/31 04:05:52;;;;;;;;;2.20;2.20;;;;;23.31;43.35;101303.84;2092950;28;48020;-63
2022/08/31 04:06:52;;;;;;;;;7.00;6.50;;;;;23.30;43.36;101301.25;2095108;28;47371;-62
2022/08/31 04:07:53;;;;;;;;;5.75;5.00;;;;;23.28;43.61;101297.78;2094245;28;48199;-61
2022/08/31 04:08:54;;;;;;;;;6.75;5.50;;;;;23.26;43.81;101299.72;2102939;27;47134;-61
2022/08/31 04:09:54;;;;;;;;;7.20;6.80;;;;;23.25;44.04;101303.38;2099188;28;47877;-62
2022/08/31 04:10:55;;;;;;;;;4.50;4.50;;;;;23.25;43.69;101301.56;2104722;28;47356;-63
2022/08/31 04:11:55;;;;;;;;;3.75;3.75;;;;;23.25;43.89;101308.78;2103543;27;47533;-62
2022/08/31 04:12:55;;;;;;;;;7.00;5.50;;;;;23.23;43.72;101300.75;2104423;28;47939;-63
2022/08/31 04:13:56;;;;;;;;;6.00;6.00;;;;;23.22;43.93;101298.16;2103459;27;47508;-63
2022/08/31 04:14:56;;;;;;;;;6.25;6.25;;;;;23.22;44.26;101299.03;2104489;28;47573;-62
2022/08/31 04:15:59;;;;;;;;;4.75;4.75;;;;;23.21;43.92;101297.28;2103421;28;48212;-64
2022/08/31 04:17:00;;;;;;;;;6.00;3.60;;;;;23.19;43.78;101289.28;2103248;28;47455;-63
2022/08/31 04:18:00;;;;;;;;;6.25;6.00;;;;;23.20;44.26;101299.13;2103204;28;47154;-63
2022/08/31 04:19:02;;;;;;;;;7.00;7.00;;;;;23.20;43.80;101291.00;2104735;28;47904;-63
2022/08/31 04:20:04;;;;;;;;;8.20;8.20;;;;;23.18;43.80;101297.50;2093335;28;46966;-64
2022/08/31 04:21:11;;;;;;;;;6.20;5.20;;;;;23.16;44.00;101294.03;2095124;28;47578;-64
2022/08/31 04:22:11;;;;;;;;;7.60;6.80;;;;;23.16;43.85;101294.91;2101242;28;47713;-63
2022/08/31 04:23:12;;;;;;;;;6.50;6.50;;;;;23.17;43.79;101298.47;2104569;28;47735;-61
2022/08/31 04:24:12;;;;;;;;;5.00;5.00;;;;;23.16;43.92;101294.91;2103558;27;47002;-64
2022/08/31 04:25:12;;;;;;;;;5.25;5.25;;;;;23.17;44.16;101299.34;2104430;28;47622;-64
2022/08/31 04:26:19;;;;;;;;;7.75;6.75;;;;;23.16;44.03;101296.75;2103488;28;47581;-63
2022/08/31 04:27:20;;;;;;;;;6.00;5.00;;;;;23.16;44.45;101297.59;2104032;28;47970;-65
2022/08/31 04:28:20;;;;;;;;;7.50;5.75;;;;;23.15;44.23;101306.69;2102924;27;47639;-64
2022/08/31 04:29:22;;;;;;;;;5.00;5.00;;;;;23.15;43.95;101298.56;2099262;28;48228;-63
2022/08/31 04:30:23;;;;;;;;;6.40;5.40;;;;;23.16;44.23;101307.56;2098808;27;47487;-62
2022/08/31 04:31:26;;;;;;;;;5.80;4.80;;;;;23.15;43.81;101305.84;2104771;28;47435;-63
2022/08/31 04:32:26;;;;;;;;;5.80;5.80;;;;;23.15;44.21;101312.13;2097533;27;47915;-63
2022/08/31 04:33:26;;;;;;;;;5.75;5.75;;;;;23.15;44.05;101305.84;2096409;28;47838;-63
2022/08/31 04:34:27;;;;;;;;;4.75;4.75;;;;;23.13;44.17;101299.66;2099451;28;47574;-63
2022/08/31 04:35:27;;;;;;;;;6.25;5.50;;;;;23.14;44.21;101301.38;2104350;28;47502;-63
2022/08/31 04:36:28;;;;;;;;;6.50;5.25;;;;;23.15;44.11;101311.25;2099871;27;47726;-63
2022/08/31 04:37:29;;;;;;;;;5.00;4.25;;;;;23.15;44.57;101311.25;2086022;28;46055;-63
2022/08/31 04:38:30;;;;;;;;;5.00;5.00;;;;;23.14;44.37;101317.63;2085310;28;47892;-63
2022/08/31 04:39:32;;;;;;;;;6.75;5.25;;;;;23.13;44.40;101308.66;2077396;28;47121;-62
2022/08/31 04:40:36;;;;;;;;;3.60;3.60;;;;;23.14;44.48;101310.38;2077892;28;47793;-62
2022/08/31 04:41:38;;;;;;;;;5.00;4.40;;;;;23.15;44.54;101303.13;2100476;28;47870;-64
2022/08/31 04:42:39;;;;;;;;;7.60;7.00;;;;;23.15;44.44;101311.25;2102921;28;47768;-63
2022/08/31 04:43:44;;;;;;;;;4.50;4.50;;;;;23.14;44.19;101309.50;2096497;28;47658;-63
2022/08/31 04:44:44;;;;;;;;;6.00;5.80;;;;;23.13;43.99;101310.47;2102665;28;48001;-63
2022/08/31 04:45:46;;;;;;;;;6.25;6.00;;;;;23.12;44.23;101306.91;2103490;27;47344;-62
2022/08/31 04:46:46;;;;;;;;;5.80;5.80;;;;;23.11;43.96;101307.84;2103913;28;47957;-64
2022/08/31 04:47:46;;;;;;;;;5.00;4.75;;;;;23.11;44.44;101307.84;2103371;27;47684;-63
2022/08/31 04:48:47;;;;;;;;;5.00;5.00;;;;;23.10;44.27;101308.81;2098625;28;47674;-63
2022/08/31 04:49:48;;;;;;;;;5.80;5.00;;;;;23.09;44.29;101308.91;2103461;28;47494;-63
2022/08/31 04:50:49;;;;;;;;;4.00;4.00;;;;;23.09;43.95;101308.91;2101768;28;47474;-64
2022/08/31 04:51:49;;;;;;;;;4.80;4.80;;;;;;;;2103117;27;47347;-63